• Join FlightAware (Why Join?)
  • Login
  • US Flag 
02:18AM EDT


 

Airport Tracker/Info


-or-


 

Live Flight TrackerFlight Track Log ✈ N8350R ✈ 06-May-2012 ✈ KSWF - KCDW

Flight Track Log - Related Links

Times and Time Zones

All times are in EDT time to prevent confusion due to time zone crossing. See the N8350R flight status page for this flight to view local times or setup timezone preferences in your user account.

Time Position Orientation Groundspeed Altitude Reporting Facility
EDT Latitude Longitude Course Direction KTS MPH feet Rate Location/Type
11:46AM 41.5000 -74.1500 246° West 82 94 1,800  Level New York TRACON
11:51AM 41.4667 -74.2500 236° Southwest 78 90 4,400 480 Climbing New York TRACON
11:52AM 41.4500 -74.2833 270° West 80 92 4,800 240 Climbing New York TRACON
11:53AM 41.4500 -74.3167 236° Southwest 90 104 5,000 60 Climbing New York TRACON
11:54AM 41.4333 -74.3500 217° Southwest 105 121 5,000  Level New York TRACON
11:55AM 41.4167 -74.3667 201° Southwest 101 116 5,000  Level New York TRACON
11:56AM 41.3833 -74.3833 180° South 106 122 5,000  Level New York TRACON
11:57AM 41.3667 -74.3833 180° South 99 114 5,000 -120 Level New York TRACON
11:58AM 41.3333 -74.3833 180° South 110 127 4,800 -300 Descending New York TRACON
11:59AM 41.3000 -74.3833 143° Southeast 105 121 4,400 -480 Descending New York TRACON
12:00PM 41.2833 -74.3667 159° South 106 122 4,000 -180 Descending New York TRACON
12:01PM 41.2500 -74.3500 159° South 108 124 4,100  Climbing New York TRACON
12:02PM 41.2167 -74.3333 180° South 108 124 4,000  Descending New York TRACON
12:03PM 41.2000 -74.3333 159° South 104 120 4,100 -120 Climbing New York TRACON
12:04PM 41.1667 -74.3167 159° South 102 117 3,800 -420 Descending New York TRACON
12:05PM 41.1333 -74.3000 180° South 99 114 3,300 -360 Descending New York TRACON
12:06PM 41.1167 -74.3000 124° Southeast 101 116 3,100 -120 Descending New York TRACON
12:07PM 41.1000 -74.2667 159° South 101 116 3,100 -60 Level New York TRACON
12:08PM 41.0667 -74.2500 143° Southeast 105 121 3,000 -120 Descending New York TRACON
12:09PM 41.0500 -74.2333 143° Southeast 102 117 2,900 -300 Descending New York TRACON
12:10PM 41.0167 -74.2000 180° South 105 121 2,500 -420 Descending New York TRACON
12:11PM 41.0000 -74.2000 180° South 102 117 2,100 -240 Descending New York TRACON
12:12PM 40.9833 -74.2000 217° Southwest 98 113 2,100  Level New York TRACON
12:13PM 40.9500 -74.2333 217° Southwest 102 117 2,100 -360 Level New York TRACON
12:14PM 40.9333 -74.2500 201° Southwest 101 116 1,400 -600 Descending New York TRACON
12:15PM 40.9000 -74.2667 204° Southwest 104 120 900 -540 Descending New York TRACON
12:23PM 40.6978 -74.3862 28° Northeast  Level Estimated
12:24PM 40.8667 -74.2667 308° West  Level FlightAware Approximate
12:25PM 40.8838 -74.2962 308° West  Level Estimated